Time;durP1;ratioP1;P1;durP2;ratioP2;P2;SDS_P1;SDS_P2;PMS_P1;PMS_P2;Temp;Humidity;BMP_temperature;BMP_pressure;BME280_temperature;BME280_humidity;BME280_pressure;Samples;Min_cycle;Max_cycle;Signal;HPM_P1;HPM_P2
2023/06/26 00:00:44;;;;;;;8.98;8.18;;;26.70;67.10;;;;;;4698013;56;20986;-36
2023/06/26 00:05:45;;;;;;;9.57;8.68;;;26.70;67.10;;;;;;4709462;56;21002;-35
2023/06/26 00:10:46;;;;;;;9.30;8.40;;;26.70;67.10;;;;;;4707542;56;21010;-35
2023/06/26 00:15:47;;;;;;;9.80;8.70;;;26.70;67.20;;;;;;4659682;60;21461;-37
2023/06/26 00:20:48;;;;;;;9.98;9.02;;;26.70;67.20;;;;;;4698700;56;21062;-36
2023/06/26 00:25:48;;;;;;;8.98;8.07;;;26.70;67.10;;;;;;4676189;56;21014;-36
2023/06/26 00:30:49;;;;;;;8.82;8.00;;;26.70;67.20;;;;;;4760184;56;21039;-34
2023/06/26 00:35:50;;;;;;;9.70;8.65;;;26.70;66.80;;;;;;4801674;56;21530;-33
2023/06/26 00:40:51;;;;;;;9.00;8.10;;;26.70;67.20;;;;;;4794030;56;21137;-36
2023/06/26 00:45:52;;;;;;;8.75;7.95;;;26.70;67.20;;;;;;4785256;56;21006;-36
2023/06/26 00:50:53;;;;;;;9.20;8.30;;;26.70;67.20;;;;;;4704255;55;21441;-34
2023/06/26 00:55:54;;;;;;;9.43;8.52;;;26.70;67.20;;;;;;4672901;56;20998;-36
2023/06/26 01:00:56;;;;;;;8.63;7.72;;;26.70;67.20;;;;;;4857364;56;21050;-35
2023/06/26 01:05:59;;;;;;;9.20;8.30;;;26.70;67.30;;;;;;4659949;60;21484;-35
2023/06/26 01:11:00;;;;;;;8.60;7.80;;;26.70;67.30;;;;;;4667087;56;21002;-33
2023/06/26 01:16:02;;;;;;;8.85;8.05;;;26.70;67.30;;;;;;4707425;56;21573;-36
2023/06/26 01:21:04;;;;;;;9.90;8.90;;;26.70;67.30;;;;;;4671130;56;21061;-36
2023/06/26 01:26:23;;;;;;;8.88;8.00;;;26.70;67.30;;;;;;4692854;56;21078;-33
2023/06/26 01:31:25;;;;;;;9.13;8.20;;;26.70;67.30;;;;;;4658684;60;21575;-37
2023/06/26 01:36:27;;;;;;;8.63;7.82;;;26.70;67.30;;;;;;4764114;56;21014;-36
2023/06/26 01:41:28;;;;;;;9.05;8.15;;;26.70;67.30;;;;;;4659180;60;21050;-30
2023/06/26 01:46:54;;;;;;;8.93;8.02;;;26.70;67.30;;;;;;4664297;56;21014;-35
2023/06/26 01:52:21;;;;;;;8.38;7.60;;;26.70;67.30;;;;;;4749194;56;21564;-34
2023/06/26 01:57:25;;;;;;;8.90;8.00;;;26.70;67.30;;;;;;4660058;60;21461;-37
2023/06/26 02:02:28;;;;;;;9.02;8.13;;;26.70;67.30;;;;;;4659157;60;21015;-36
2023/06/26 02:07:29;;;;;;;8.30;7.50;;;26.70;67.30;;;;;;4724902;56;21328;-37
2023/06/26 02:12:30;;;;;;;8.57;7.78;;;26.70;67.30;;;;;;4717769;56;21406;-36
2023/06/26 02:17:30;;;;;;;8.55;7.75;;;26.70;67.30;;;;;;4659857;60;21383;-37
2023/06/26 02:22:31;;;;;;;9.13;8.23;;;26.70;67.40;;;;;;4675417;56;21011;-35
2023/06/26 02:27:32;;;;;;;8.23;7.45;;;26.70;67.30;;;;;;4697042;56;21018;-36
2023/06/26 02:32:33;;;;;;;8.73;7.93;;;26.70;67.30;;;;;;4669629;56;21010;-36
2023/06/26 02:37:34;;;;;;;9.13;8.23;;;26.70;67.40;;;;;;4658850;60;21496;-37
2023/06/26 02:42:35;;;;;;;9.10;8.27;;;26.70;67.50;;;;;;4683170;56;21002;-34
2023/06/26 02:47:39;;;;;;;8.07;7.30;;;26.70;67.40;;;;;;4734409;56;21540;-37
2023/06/26 02:52:40;;;;;;;8.65;7.85;;;26.60;67.40;;;;;;4705799;56;21480;-37
2023/06/26 02:57:40;;;;;;;8.60;7.80;;;26.70;67.50;;;;;;4659362;60;21070;-37
2023/06/26 03:02:42;;;;;;;8.15;7.40;;;26.70;67.50;;;;;;4658914;60;21098;-35
2023/06/26 03:07:42;;;;;;;8.68;7.87;;;26.70;67.50;;;;;;4867621;56;21532;-38
2023/06/26 03:12:43;;;;;;;8.95;8.15;;;26.70;67.50;;;;;;4660226;60;21121;-31
2023/06/26 03:17:44;;;;;;;8.73;7.87;;;26.70;67.50;;;;;;4660878;60;21174;-35
2023/06/26 03:22:45;;;;;;;9.10;8.30;;;26.60;67.40;;;;;;4659504;60;21420;-36
2023/06/26 03:27:46;;;;;;;8.15;7.40;;;26.70;67.50;;;;;;4789799;56;21094;-38
2023/06/26 03:32:46;;;;;;;8.68;7.87;;;26.60;67.30;;;;;;4785009;56;21054;-37
2023/06/26 03:37:49;;;;;;;8.80;7.97;;;26.60;67.30;;;;;;4772904;56;21504;-34
2023/06/26 03:42:49;;;;;;;8.35;7.55;;;26.60;67.30;;;;;;4664947;56;21106;-36
2023/06/26 03:47:50;;;;;;;9.20;8.30;;;26.60;67.30;;;;;;4660899;60;21552;-33
2023/06/26 03:52:51;;;;;;;9.00;8.10;;;26.60;67.30;;;;;;4723206;56;21033;-35
2023/06/26 03:57:52;;;;;;;9.63;8.15;;;26.60;67.30;;;;;;4711567;56;21415;-35
2023/06/26 04:02:53;;;;;;;9.15;8.20;;;26.60;67.30;;;;;;4751284;56;21074;-37
2023/06/26 04:07:54;;;;;;;8.75;7.95;;;26.60;67.30;;;;;;4870255;56;20997;-33
2023/06/26 04:12:55;;;;;;;9.52;8.63;;;26.60;67.30;;;;;;4680023;56;21512;-37
2023/06/26 04:17:55;;;;;;;9.50;8.50;;;26.60;67.20;;;;;;4660356;60;21299;-36
2023/06/26 04:22:56;;;;;;;11.05;8.30;;;26.60;67.20;;;;;;4682823;56;20975;-37
2023/06/26 04:27:57;;;;;;;9.90;8.88;;;26.50;67.00;;;;;;4790187;56;20998;-32
2023/06/26 04:32:58;;;;;;;8.38;7.57;;;26.50;66.90;;;;;;4662127;56;21132;-36
2023/06/26 04:38:02;;;;;;;10.73;8.98;;;26.60;67.00;;;;;;4659801;56;21563;-37
2023/06/26 04:43:03;;;;;;;9.52;8.50;;;26.60;67.00;;;;;;4752653;56;21085;-36
2023/06/26 04:48:05;;;;;;;9.70;8.70;;;26.50;66.90;;;;;;4672901;56;21531;-38
2023/06/26 04:53:06;;;;;;;9.90;8.90;;;26.60;66.90;;;;;;4672781;56;21465;-36
2023/06/26 04:58:07;;;;;;;10.00;9.00;;;26.60;66.90;;;;;;4659672;60;21046;-36
2023/06/26 05:03:09;;;;;;;10.15;9.00;;;26.50;66.80;;;;;;4853934;56;21089;-39
2023/06/26 05:08:18;;;;;;;11.38;10.02;;;26.60;66.90;;;;;;4659774;60;21058;-39
2023/06/26 05:13:19;;;;;;;9.75;8.73;;;26.60;66.90;;;;;;4720878;56;21001;-38
2023/06/26 05:18:20;;;;;;;11.57;9.57;;;26.60;66.90;;;;;;4685986;56;20962;-37
2023/06/26 05:23:23;;;;;;;10.73;9.15;;;26.60;66.90;;;;;;4774565;56;21090;-36
2023/06/26 05:28:27;;;;;;;10.88;9.60;;;26.60;66.80;;;;;;4659903;60;20999;-37
2023/06/26 05:33:28;;;;;;;10.85;9.75;;;26.50;66.70;;;;;;4660532;56;21562;-36
2023/06/26 05:38:30;;;;;;;10.77;9.68;;;26.50;66.70;;;;;;4700423;56;21509;-36
2023/06/26 05:43:31;;;;;;;11.40;10.20;;;26.60;66.80;;;;;;4699239;56;21467;-36
2023/06/26 05:48:32;;;;;;;10.88;9.70;;;26.60;66.70;;;;;;4759668;56;21034;-37
2023/06/26 05:53:33;;;;;;;11.80;10.35;;;26.50;66.70;;;;;;4690749;56;21422;-36
2023/06/26 05:58:35;;;;;;;13.85;10.85;;;26.60;66.80;;;;;;4736235;56;21395;-33
2023/06/26 06:03:36;;;;;;;12.60;11.00;;;26.50;66.60;;;;;;4812141;56;21082;-36
2023/06/26 06:08:36;;;;;;;13.45;11.05;;;26.50;66.70;;;;;;4659566;60;21081;-35
2023/06/26 06:13:37;;;;;;;12.10;10.88;;;26.50;66.70;;;;;;4686901;55;21030;-36
2023/06/26 06:18:38;;;;;;;12.65;10.93;;;26.50;66.70;;;;;;4659431;60;21038;-37
2023/06/26 06:23:39;;;;;;;13.45;11.55;;;26.50;67.00;;;;;;4743943;56;21489;-36
2023/06/26 06:28:43;;;;;;;13.70;12.25;;;26.60;67.20;;;;;;4849566;56;22007;-37
2023/06/26 06:33:44;;;;;;;14.05;11.50;;;26.50;66.60;;;;;;4662818;56;20994;-42
2023/06/26 06:38:45;;;;;;;13.48;11.05;;;26.50;66.60;;;;;;4836951;56;21499;-35
2023/06/26 06:43:46;;;;;;;13.60;11.18;;;26.50;67.20;;;;;;4697936;56;21146;-35
2023/06/26 06:48:47;;;;;;;12.90;11.50;;;26.50;66.60;;;;;;4720640;56;21002;-36
2023/06/26 06:53:48;;;;;;;15.60;11.52;;;26.60;66.70;;;;;;4673349;56;21383;-35
2023/06/26 06:58:49;;;;;;;12.95;11.38;;;26.60;66.60;;;;;;4659512;60;21344;-36
2023/06/26 07:03:50;;;;;;;12.70;11.32;;;26.50;66.60;;;;;;4820365;56;20998;-38
2023/06/26 07:08:51;;;;;;;12.20;10.90;;;26.50;66.60;;;;;;4722583;55;21537;-36
2023/06/26 07:13:53;;;;;;;13.68;11.10;;;26.60;66.60;;;;;;4698650;56;22131;-37
2023/06/26 07:18:54;;;;;;;14.05;11.32;;;26.60;66.60;;;;;;4723417;56;21066;-38
2023/06/26 07:23:55;;;;;;;12.50;10.75;;;26.60;66.60;;;;;;4689355;56;21543;-35
2023/06/26 07:28:56;;;;;;;15.07;11.30;;;26.50;66.60;;;;;;4721218;56;21131;-37
2023/06/26 07:33:57;;;;;;;13.50;11.50;;;26.60;66.60;;;;;;4673857;56;21551;-36
2023/06/26 07:38:58;;;;;;;13.80;11.12;;;26.60;66.60;;;;;;4657821;60;21137;-34
2023/06/26 07:43:59;;;;;;;13.23;11.45;;;26.60;66.60;;;;;;4658626;56;21493;-36
2023/06/26 07:49:00;;;;;;;13.32;11.35;;;26.60;66.60;;;;;;4772012;56;21485;-36
2023/06/26 07:54:01;;;;;;;17.02;12.50;;;26.60;66.60;;;;;;4821261;56;21132;-37
2023/06/26 07:59:04;;;;;;;14.35;12.10;;;26.60;66.80;;;;;;4739612;56;21568;-36
2023/06/26 08:04:05;;;;;;;16.17;13.48;;;26.60;66.60;;;;;;4658768;60;21548;-37
2023/06/26 08:09:07;;;;;;;15.02;12.25;;;26.60;66.60;;;;;;4659436;60;21054;-38
2023/06/26 08:14:08;;;;;;;13.90;11.35;;;26.60;66.60;;;;;;4683671;56;21449;-38
2023/06/26 08:19:09;;;;;;;15.15;12.90;;;26.60;66.60;;;;;;4845306;56;21095;-37
2023/06/26 08:24:11;;;;;;;14.93;12.27;;;26.60;66.70;;;;;;4658455;60;21007;-39
2023/06/26 08:29:12;;;;;;;14.02;12.43;;;26.60;66.60;;;;;;4677127;56;21492;-35
2023/06/26 08:34:13;;;;;;;14.95;12.55;;;26.60;66.60;;;;;;4716899;56;20982;-38
2023/06/26 08:39:13;;;;;;;15.02;13.32;;;26.60;66.70;;;;;;4863860;56;21591;-40
2023/06/26 08:44:14;;;;;;;15.73;12.80;;;26.60;66.60;;;;;;4660606;56;21600;-37
2023/06/26 08:49:25;;;;;;;16.45;13.13;;;26.60;66.60;;;;;;4692979;56;21009;-36
2023/06/26 08:54:33;;;;;;;16.02;13.45;;;26.60;66.60;;;;;;4677866;56;21544;-37
2023/06/26 08:59:34;;;;;;;14.68;13.18;;;26.60;66.60;;;;;;4709613;55;22224;-37
2023/06/26 09:04:35;;;;;;;16.75;13.45;;;26.60;66.60;;;;;;4663099;56;21078;-34
2023/06/26 09:09:37;;;;;;;15.38;13.00;;;26.70;66.50;;;;;;4656386;56;21030;-37
2023/06/26 09:14:39;;;;;;;16.02;13.35;;;26.80;66.40;;;;;;4686844;56;21536;-37
2023/06/26 09:19:40;;;;;;;14.87;13.10;;;26.80;66.50;;;;;;4661924;56;21016;-29
2023/06/26 09:24:44;;;;;;;20.60;14.68;;;26.90;66.90;;;;;;4662836;56;21111;-30
2023/06/26 09:29:49;;;;;;;20.23;14.48;;;26.90;67.10;;;;;;4665634;56;21122;-34
2023/06/26 09:34:52;;;;;;;20.67;15.70;;;27.00;67.00;;;;;;4700657;56;21008;-37
2023/06/26 09:39:53;;;;;;;22.60;15.43;;;26.90;67.00;;;;;;4657548;60;21127;-34
2023/06/26 09:44:55;;;;;;;378.52;339.73;;;26.90;66.50;;;;;;4692097;55;21119;-33
2023/06/26 09:49:57;;;;;;;366.48;327.90;;;26.90;67.50;;;;;;4688963;56;21590;-38
2023/06/26 09:55:11;;;;;;;322.95;289.38;;;26.90;67.80;;;;;;4659458;60;21570;-36
2023/06/26 10:00:13;;;;;;;309.05;277.55;;;26.90;67.90;;;;;;4831195;56;21004;-37
2023/06/26 10:05:14;;;;;;;304.70;272.88;;;26.80;67.70;;;;;;4658883;60;21465;-38
2023/06/26 10:10:17;;;;;;;292.67;262.20;;;26.80;68.30;;;;;;4670208;56;21357;-41
2023/06/26 10:15:19;;;;;;;295.00;264.50;;;26.80;67.80;;;;;;4658610;60;21598;-37
2023/06/26 10:20:21;;;;;;;286.70;256.98;;;26.80;67.90;;;;;;4695837;55;21036;-40
2023/06/26 10:25:24;;;;;;;288.45;259.23;;;26.80;67.90;;;;;;4695338;55;21019;-36
2023/06/26 10:30:29;;;;;;;279.52;250.57;;;26.80;68.00;;;;;;4723517;56;21024;-36
2023/06/26 10:35:30;;;;;;;272.85;245.02;;;26.70;67.90;;;;;;4762408;56;21181;-38
2023/06/26 10:40:43;;;;;;;254.82;228.37;;;26.80;67.90;;;;;;4714665;56;21095;-38
2023/06/26 10:45:55;;;;;;;259.12;232.27;;;26.80;67.90;;;;;;4794467;55;21530;-37
2023/06/26 10:50:56;;;;;;;250.35;224.50;;;26.80;68.00;;;;;;4659410;60;21127;-36
2023/06/26 10:56:03;;;;;;;253.18;227.45;;;26.80;67.80;;;;;;4728350;55;21541;-34
2023/06/26 11:01:21;;;;;;;251.18;225.45;;;26.80;67.80;;;;;;4737955;55;21129;-40
2023/06/26 11:06:23;;;;;;;247.02;221.93;;;26.70;67.70;;;;;;4714760;56;21035;-38
2023/06/26 11:11:58;;;;;;;240.18;215.52;;;26.70;67.80;;;;;;4711543;55;21016;-35
2023/06/26 11:17:02;;;;;;;245.33;220.03;;;26.80;67.80;;;;;;4784609;55;21064;-37
2023/06/26 11:22:05;;;;;;;223.70;200.70;;;26.80;67.80;;;;;;4658697;60;21781;-36
2023/06/26 11:27:06;;;;;;;219.02;195.82;;;26.70;67.70;;;;;;4725770;56;21396;-37
2023/06/26 11:32:07;;;;;;;233.00;208.85;;;26.70;68.40;;;;;;4704558;55;21016;-37
2023/06/26 11:37:08;;;;;;;231.85;207.85;;;26.70;67.70;;;;;;4679434;56;21964;-40
2023/06/26 11:42:11;;;;;;;225.27;202.30;;;26.80;68.40;;;;;;4712480;56;21099;-36
2023/06/26 11:47:19;;;;;;;215.02;192.90;;;26.80;67.80;;;;;;4660140;60;21181;-37
2023/06/26 11:52:20;;;;;;;218.27;195.75;;;26.80;67.70;;;;;;4659955;60;21002;-40
2023/06/26 11:57:21;;;;;;;222.45;199.65;;;26.80;67.80;;;;;;4667943;56;21167;-39
2023/06/26 12:02:22;;;;;;;203.07;181.87;;;26.80;67.80;;;;;;4659328;60;21084;-40
2023/06/26 12:07:23;;;;;;;221.32;198.82;;;26.80;67.70;;;;;;4659915;60;21490;-39
2023/06/26 12:12:24;;;;;;;206.00;184.50;;;26.80;67.80;;;;;;4760258;56;21012;-34
2023/06/26 12:17:26;;;;;;;213.60;192.07;;;26.70;67.70;;;;;;4665283;56;21011;-36
2023/06/26 12:22:34;;;;;;;216.45;194.27;;;26.80;67.70;;;;;;4659119;60;21047;-38
2023/06/26 12:27:36;;;;;;;202.65;181.23;;;26.70;67.70;;;;;;4762970;56;21511;-39
2023/06/26 12:32:36;;;;;;;204.77;183.73;;;26.80;67.70;;;;;;4659971;60;21420;-37
2023/06/26 12:37:40;;;;;;;207.48;186.00;;;26.80;67.60;;;;;;4669110;56;21080;-37
2023/06/26 12:42:41;;;;;;;205.45;184.00;;;26.80;67.70;;;;;;4773381;55;21520;-38
2023/06/26 12:47:42;;;;;;;203.52;182.68;;;26.70;67.70;;;;;;4659459;60;21016;-38
2023/06/26 12:52:43;;;;;;;202.32;181.75;;;26.70;67.60;;;;;;4689848;55;21077;-38
2023/06/26 12:57:45;;;;;;;199.38;179.00;;;26.80;67.70;;;;;;4887061;56;21370;-37
2023/06/26 13:02:46;;;;;;;198.20;177.98;;;26.80;67.70;;;;;;4658368;60;21028;-39
2023/06/26 13:07:46;;;;;;;201.55;181.07;;;26.80;67.70;;;;;;4688766;56;21159;-36
2023/06/26 13:12:47;;;;;;;193.18;173.48;;;26.70;67.60;;;;;;4766708;55;21024;-40
2023/06/26 13:17:48;;;;;;;192.90;172.95;;;26.80;67.70;;;;;;4659644;60;21558;-38
2023/06/26 13:22:49;;;;;;;192.05;172.57;;;26.70;67.70;;;;;;4681230;55;21028;-36
2023/06/26 13:27:50;;;;;;;188.30;168.98;;;26.80;67.80;;;;;;4681895;55;21021;-36
2023/06/26 13:32:51;;;;;;;194.77;174.82;;;26.80;67.70;;;;;;4659445;60;21467;-39
2023/06/26 13:37:51;;;;;;;190.90;171.37;;;26.80;67.70;;;;;;4718360;56;21044;-35
2023/06/26 13:42:52;;;;;;;190.62;171.20;;;26.80;67.70;;;;;;4673055;55;21534;-41
2023/06/26 13:47:53;;;;;;;191.40;172.00;;;26.80;67.70;;;;;;4874738;55;20996;-37
2023/06/26 13:52:54;;;;;;;191.00;171.73;;;26.80;67.80;;;;;;4659360;60;21036;-39
2023/06/26 13:57:55;;;;;;;189.70;170.35;;;26.80;67.80;;;;;;4708919;55;21459;-38
2023/06/26 14:02:56;;;;;;;187.57;168.52;;;26.80;67.80;;;;;;4658951;60;21586;-38
2023/06/26 14:07:57;;;;;;;183.57;164.95;;;26.80;67.90;;;;;;4658872;55;21027;-36
2023/06/26 14:12:58;;;;;;;182.27;163.73;;;26.80;67.90;;;;;;4658483;60;21008;-36
2023/06/26 14:17:58;;;;;;;182.65;163.80;;;26.80;67.90;;;;;;4665412;56;21562;-34
2023/06/26 14:22:59;;;;;;;181.32;162.73;;;26.80;67.80;;;;;;4658295;60;21417;-38
2023/06/26 14:28:00;;;;;;;183.65;164.82;;;26.80;67.80;;;;;;4658473;60;21342;-38
2023/06/26 14:33:01;;;;;;;176.60;158.27;;;26.80;67.90;;;;;;4681823;56;21031;-38
2023/06/26 14:38:02;;;;;;;175.95;157.73;;;26.80;67.80;;;;;;4667808;56;21948;-39
2023/06/26 14:43:03;;;;;;;177.32;159.12;;;26.80;67.90;;;;;;4657982;60;21444;-36
2023/06/26 14:48:04;;;;;;;177.45;159.50;;;26.80;67.80;;;;;;4696450;55;21558;-37
2023/06/26 14:53:05;;;;;;;176.40;158.25;;;26.80;67.90;;;;;;4658473;60;21088;-36
2023/06/26 14:58:06;;;;;;;175.15;157.23;;;26.80;67.90;;;;;;4677742;55;21032;-37
2023/06/26 15:03:07;;;;;;;174.12;156.12;;;26.80;67.90;;;;;;4722767;55;21084;-36
2023/06/26 15:08:09;;;;;;;171.55;154.10;;;26.80;67.90;;;;;;4708834;56;21004;-37
2023/06/26 15:13:10;;;;;;;170.70;152.98;;;26.80;67.90;;;;;;4692044;56;21401;-36
2023/06/26 15:18:11;;;;;;;174.90;156.87;;;26.80;67.90;;;;;;4679807;55;21103;-36
2023/06/26 15:23:12;;;;;;;170.70;153.40;;;26.80;67.90;;;;;;4695988;56;21685;-36
2023/06/26 15:28:12;;;;;;;171.35;153.95;;;26.80;67.90;;;;;;4660694;56;21064;-36
2023/06/26 15:33:13;;;;;;;169.40;152.30;;;26.80;67.90;;;;;;4722010;56;21035;-36
2023/06/26 15:38:14;;;;;;;171.57;154.02;;;26.80;67.90;;;;;;4666576;56;21055;-37
2023/06/26 15:43:15;;;;;;;161.40;144.90;;;26.80;67.90;;;;;;4701824;56;21557;-36
2023/06/26 15:48:16;;;;;;;165.45;148.48;;;26.80;67.90;;;;;;4690565;56;21020;-39
2023/06/26 15:53:19;;;;;;;169.25;152.10;;;26.80;67.90;;;;;;4667042;56;21024;-38
2023/06/26 15:58:20;;;;;;;165.02;148.55;;;26.80;67.80;;;;;;4667263;56;21040;-37
2023/06/26 16:03:21;;;;;;;165.15;148.23;;;26.80;67.90;;;;;;4833751;55;21080;-37
2023/06/26 16:08:22;;;;;;;165.98;149.05;;;26.80;67.90;;;;;;4788233;55;21490;-36
2023/06/26 16:13:23;;;;;;;164.62;148.10;;;26.80;67.80;;;;;;4701846;56;21024;-39
2023/06/26 16:18:25;;;;;;;166.30;149.57;;;26.80;68.50;;;;;;4722400;55;21044;-39
2023/06/26 16:23:26;;;;;;;160.55;144.30;;;26.80;67.90;;;;;;4657342;60;21542;-36
2023/06/26 16:28:26;;;;;;;160.35;144.20;;;26.80;67.90;;;;;;4675126;56;21088;-39
2023/06/26 16:33:27;;;;;;;160.43;144.27;;;26.80;67.90;;;;;;4662326;56;21159;-36
2023/06/26 16:38:28;;;;;;;159.07;143.20;;;26.80;67.90;;;;;;4689342;56;21071;-39
2023/06/26 16:43:29;;;;;;;157.43;141.43;;;26.80;67.80;;;;;;4684537;56;21349;-38
2023/06/26 16:48:30;;;;;;;157.37;141.68;;;26.80;67.80;;;;;;4659107;60;21991;-35
2023/06/26 16:53:30;;;;;;;156.65;140.85;;;26.80;67.80;;;;;;4772669;55;21044;-41
2023/06/26 16:58:31;;;;;;;153.75;138.23;;;26.80;67.80;;;;;;4725664;56;21590;-39
2023/06/26 17:03:32;;;;;;;153.65;138.23;;;26.80;68.10;;;;;;4658033;60;21100;-38
2023/06/26 17:08:33;;;;;;;153.90;138.45;;;26.80;67.80;;;;;;4658524;60;21384;-40
2023/06/26 17:13:35;;;;;;;152.90;137.55;;;26.80;67.80;;;;;;4751560;55;21008;-39
2023/06/26 17:18:36;;;;;;;154.70;139.18;;;26.80;67.80;;;;;;4658867;60;21514;-39
2023/06/26 17:23:36;;;;;;;151.35;136.30;;;26.80;67.90;;;;;;4658005;60;21109;-36
2023/06/26 17:28:37;;;;;;;151.55;136.43;;;26.80;67.80;;;;;;4659717;56;21031;-36
2023/06/26 17:33:38;;;;;;;156.57;140.88;;;26.80;67.80;;;;;;4704310;56;21080;-36
2023/06/26 17:38:41;;;;;;;150.87;135.82;;;26.80;67.80;;;;;;4659197;56;21112;-38
2023/06/26 17:43:42;;;;;;;149.12;134.18;;;26.80;67.90;;;;;;4699232;56;22029;-38
2023/06/26 17:48:42;;;;;;;153.77;138.35;;;26.80;67.90;;;;;;4658549;60;21358;-38
2023/06/26 17:53:44;;;;;;;152.15;137.15;;;26.80;67.90;;;;;;4658482;60;21035;-38
2023/06/26 17:58:46;;;;;;;149.05;134.23;;;26.90;67.90;;;;;;4734911;56;22287;-38
2023/06/26 18:03:47;;;;;;;149.50;134.70;;;26.90;68.00;;;;;;4682295;56;21016;-36
2023/06/26 18:08:48;;;;;;;147.25;132.65;;;26.80;67.90;;;;;;4702184;56;21036;-38
2023/06/26 18:13:48;;;;;;;147.18;132.50;;;26.90;68.60;;;;;;4661596;56;22178;-37
2023/06/26 18:18:49;;;;;;;146.60;131.95;;;26.80;68.40;;;;;;4658924;60;21337;-38
2023/06/26 18:23:50;;;;;;;142.50;128.40;;;26.80;67.80;;;;;;4682985;56;21375;-35
2023/06/26 18:28:52;;;;;;;143.52;129.35;;;26.90;67.90;;;;;;4727490;56;21107;-36
2023/06/26 18:33:53;;;;;;;143.73;129.25;;;26.80;67.80;;;;;;4690393;56;21526;-39
2023/06/26 18:38:54;;;;;;;138.10;124.40;;;26.90;67.90;;;;;;4679704;55;21048;-37
2023/06/26 18:43:55;;;;;;;139.80;126.03;;;26.90;67.80;;;;;;4657842;56;21036;-39
2023/06/26 18:49:03;;;;;;;139.05;125.40;;;26.80;67.80;;;;;;4682679;56;21585;-38
2023/06/26 18:54:04;;;;;;;134.30;120.90;;;26.80;67.80;;;;;;4663310;56;21024;-37
2023/06/26 18:59:05;;;;;;;136.50;123.03;;;26.80;67.80;;;;;;4824049;56;21028;-37
2023/06/26 19:04:06;;;;;;;136.25;122.80;;;26.90;67.90;;;;;;4757874;55;21044;-38
2023/06/26 19:09:07;;;;;;;135.35;122.00;;;26.80;67.70;;;;;;4665512;56;21072;-37
2023/06/26 19:14:08;;;;;;;130.05;117.15;;;26.80;67.80;;;;;;4658711;60;21080;-36
2023/06/26 19:19:12;;;;;;;131.65;118.75;;;26.80;67.70;;;;;;4658378;60;21091;-37
2023/06/26 19:24:13;;;;;;;129.63;116.97;;;26.80;67.80;;;;;;4657978;60;21550;-36
2023/06/26 19:29:15;;;;;;;131.48;118.55;;;26.80;67.70;;;;;;4706534;55;21059;-38
2023/06/26 19:34:17;;;;;;;129.85;117.05;;;26.80;67.70;;;;;;4733184;56;21582;-38
2023/06/26 19:39:18;;;;;;;127.18;114.45;;;26.80;67.60;;;;;;4789900;56;21108;-36
2023/06/26 19:44:20;;;;;;;123.07;110.93;;;26.80;67.60;;;;;;4659996;56;21084;-37
2023/06/26 19:49:21;;;;;;;128.20;115.62;;;26.80;67.60;;;;;;4682349;56;21455;-36
2023/06/26 19:54:22;;;;;;;123.00;110.97;;;26.80;67.60;;;;;;4691548;55;21000;-37
2023/06/26 19:59:24;;;;;;;120.20;108.32;;;26.80;67.60;;;;;;4659004;60;20977;-44
2023/06/26 20:04:26;;;;;;;118.00;106.43;;;26.80;67.60;;;;;;4657933;60;21486;-37
2023/06/26 20:09:31;;;;;;;120.82;108.93;;;26.80;67.60;;;;;;4759898;55;21573;-37
2023/06/26 20:14:32;;;;;;;116.50;105.00;;;26.80;67.60;;;;;;4703721;56;21146;-37
2023/06/26 20:19:33;;;;;;;113.62;102.53;;;26.80;67.50;;;;;;4658656;60;21064;-32
2023/06/26 20:24:35;;;;;;;113.88;102.70;;;26.80;67.50;;;;;;4676996;55;21012;-37
2023/06/26 20:29:36;;;;;;;114.53;103.25;;;26.80;67.50;;;;;;4822944;55;21539;-35
2023/06/26 20:34:37;;;;;;;109.22;98.47;;;26.80;67.50;;;;;;4671304;56;21031;-36
2023/06/26 20:39:39;;;;;;;111.88;100.85;;;26.80;67.40;;;;;;4774349;55;21071;-37
2023/06/26 20:44:41;;;;;;;110.10;99.13;;;26.80;67.40;;;;;;4658082;60;21616;-36
2023/06/26 20:49:42;;;;;;;106.53;95.90;;;26.80;67.40;;;;;;4658932;60;21003;-34
2023/06/26 20:54:44;;;;;;;107.12;96.72;;;26.80;67.40;;;;;;4694164;56;21513;-34
2023/06/26 20:59:45;;;;;;;101.90;91.87;;;26.80;67.40;;;;;;4705076;56;21708;-36
2023/06/26 21:04:45;;;;;;;103.00;92.80;;;26.80;67.40;;;;;;4669365;56;21016;-35
2023/06/26 21:09:47;;;;;;;97.05;87.53;;;26.70;67.30;;;;;;4666758;55;20992;-38
2023/06/26 21:14:49;;;;;;;98.10;88.62;;;26.80;67.30;;;;;;4692119;55;21463;-36
2023/06/26 21:19:49;;;;;;;98.37;88.85;;;26.70;67.10;;;;;;4685952;56;21590;-34
2023/06/26 21:24:50;;;;;;;95.57;86.37;;;26.70;67.10;;;;;;4697042;56;21016;-35
2023/06/26 21:29:51;;;;;;;96.50;87.00;;;26.70;67.10;;;;;;4687618;56;21019;-37
2023/06/26 21:34:52;;;;;;;91.35;82.45;;;26.80;67.10;;;;;;4717403;56;21120;-37
2023/06/26 21:39:53;;;;;;;93.32;83.93;;;26.70;67.00;;;;;;4727206;55;21019;-37
2023/06/26 21:44:54;;;;;;;89.03;80.47;;;26.70;66.90;;;;;;4670021;56;21031;-38
2023/06/26 21:49:55;;;;;;;89.40;80.47;;;26.70;67.00;;;;;;4658857;60;21052;-36
2023/06/26 21:54:56;;;;;;;86.75;78.40;;;26.70;66.80;;;;;;4695369;55;21322;-36
2023/06/26 21:59:57;;;;;;;85.25;76.82;;;26.70;66.80;;;;;;4893691;55;21450;-37
2023/06/26 22:04:58;;;;;;;86.00;77.68;;;26.70;66.80;;;;;;4658731;60;21064;-36
2023/06/26 22:09:59;;;;;;;83.95;75.65;;;26.70;66.80;;;;;;4750865;55;21031;-36
2023/06/26 22:14:59;;;;;;;84.43;76.20;;;26.70;66.80;;;;;;4671909;55;21060;-36
2023/06/26 22:20:00;;;;;;;80.55;72.90;;;26.70;66.70;;;;;;4677263;55;21117;-36
2023/06/26 22:25:01;;;;;;;78.82;71.07;;;26.70;66.70;;;;;;4775576;55;21012;-36
2023/06/26 22:30:03;;;;;;;79.78;72.10;;;26.70;66.70;;;;;;4793993;55;21530;-32
2023/06/26 22:35:05;;;;;;;78.55;70.95;;;26.70;66.60;;;;;;4691537;55;21653;-34
2023/06/26 22:40:08;;;;;;;74.75;67.55;;;26.70;66.60;;;;;;4675984;56;21039;-36
2023/06/26 22:45:11;;;;;;;75.22;67.93;;;26.70;66.60;;;;;;4661118;56;21016;-37
2023/06/26 22:50:12;;;;;;;75.25;67.80;;;26.70;66.60;;;;;;4784889;56;21113;-37
2023/06/26 22:55:13;;;;;;;75.85;68.50;;;26.70;66.50;;;;;;4659028;60;21039;-36
2023/06/26 23:00:15;;;;;;;71.03;64.12;;;26.70;66.50;;;;;;4658421;60;21528;-37
2023/06/26 23:05:16;;;;;;;72.90;65.80;;;26.70;66.50;;;;;;4734175;56;21306;-37
2023/06/26 23:10:16;;;;;;;73.00;65.80;;;26.70;66.50;;;;;;4826713;55;21604;-36
2023/06/26 23:15:17;;;;;;;70.78;63.72;;;26.70;66.50;;;;;;4658850;60;21036;-36
2023/06/26 23:20:18;;;;;;;69.03;62.03;;;26.60;66.40;;;;;;4658141;59;21104;-37
2023/06/26 23:25:19;;;;;;;70.22;63.33;;;26.70;66.50;;;;;;4670910;56;21040;-37
2023/06/26 23:30:20;;;;;;;68.12;61.47;;;26.70;66.40;;;;;;4659206;60;21483;-36
2023/06/26 23:35:24;;;;;;;68.03;61.53;;;26.60;66.40;;;;;;4658578;60;21104;-35
2023/06/26 23:40:25;;;;;;;64.35;58.15;;;26.60;66.30;;;;;;4658955;60;21670;-36
2023/06/26 23:45:27;;;;;;;64.65;58.38;;;26.70;66.40;;;;;;4733167;56;21051;-37
2023/06/26 23:50:28;;;;;;;64.75;58.47;;;26.60;66.10;;;;;;4691739;56;21427;-37
2023/06/26 23:55:29;;;;;;;63.10;56.90;;;26.70;66.30;;;;;;4698515;56;21541;-36
